Flight Track Log - Related Links

Times and Time Zones

All times are in EST time to prevent confusion due to time zone crossing. See the FLG4024 flight status page for this flight to view local times or setup timezone preferences in your user account.

Time Position Orientation Groundspeed Altitude Reporting Facility
EST Latitude Longitude Course Direction KTS MPH feet Rate Location/Type
Sun 08:41:33 PM 42.2258 -83.3558 21° North 162 186 1,100  Level Cleveland Center
Sun 08:41:58 PM 42.2433 -83.3469 21° North 168 193 2,300 2,413 Climbing Cleveland Center
Sun 08:43:05 PM 42.3053 -83.3303 11° North 222 255 4,800 1,975 Climbing Cleveland Center
Sun 08:43:17 PM 42.3078 -83.3286 26° Northeast 211 243 4,900 1,865 Climbing Cleveland Center
Sun 08:44:19 PM 42.3775 -83.3028 15° North 247 284 7,100 2,710 Climbing Cleveland Center
Sun 08:45:21 PM 42.4672 -83.2917 North 279 321 10,500 2,468 Climbing Cleveland Center
Sun 08:46:23 PM 42.5517 -83.3061 353° North 304 350 12,200 1,839 Climbing Cleveland Center
Sun 08:47:25 PM 42.6450 -83.3206 354° North 333 383 14,300 2,032 Climbing Cleveland Center
Sun 08:48:27 PM 42.7411 -83.3367 353° North 345 397 16,400 1,742 Climbing Cleveland Center
Sun 08:49:29 PM 42.8383 -83.3517 354° North 351 404 17,900 1,645 Climbing Cleveland Center
Sun 08:50:31 PM 42.9458 -83.4156 336° Northwest 360 414 19,800 1,645 Climbing Cleveland Center
Sun 08:51:33 PM 43.0222 -83.5017 321° Northwest 359 413 21,300 1,355 Climbing Cleveland Center
Sun 08:52:35 PM 43.1014 -83.5883 321° Northwest 364 419 22,600 960 Climbing Cleveland Center
Sun 08:53:38 PM 43.1822 -83.6772 321° Northwest 371 427 23,300 576 Climbing Cleveland Center
Sun 08:54:40 PM 43.2669 -83.7739 320° Northwest 391 450 23,800 484 Climbing Cleveland Center
Sun 08:55:42 PM 43.3539 -83.8708 321° Northwest 402 463 24,300 532 Climbing Cleveland Center
Sun 08:56:44 PM 43.4606 -83.9922 320° Northwest 413 475 24,900 581 Climbing Cleveland Center
Sun 08:57:46 PM 43.5539 -84.1000 320° Northwest 416 479 25,500 532 Climbing Cleveland Center
Sun 08:58:48 PM 43.6383 -84.2086 317° Northwest 418 481 26,000 240 Climbing Cleveland Center
Sun 08:59:51 PM 43.7247 -84.3189 317° Northwest 423 487 26,000  Level Cleveland Center
Sun 09:00:53 PM 43.8131 -84.4297 318° Northwest 429 494 26,000  Level Cleveland Center
Sun 09:01:55 PM 43.9017 -84.5433 317° Northwest 434 499 26,000  Level Cleveland Center
Sun 09:02:57 PM 44.0081 -84.6800 317° Northwest 437 503 26,000  Level Cleveland Center
Sun 09:03:59 PM 44.0953 -84.7922 317° Northwest 431 496 26,000  Level Cleveland Center
Sun 09:05:01 PM 44.1828 -84.9075 317° Northwest 434 499 26,000  Level Cleveland Center
Sun 09:06:03 PM 44.2708 -85.0197 318° Northwest 432 497 26,000  Level Cleveland Center
Sun 09:07:05 PM 44.3581 -85.1356 317° Northwest 434 499 26,000  Level Cleveland Center
Sun 09:08:07 PM 44.4458 -85.2508 317° Northwest 435 501 26,000  Level Cleveland Center
Sun 09:09:30 PM 44.5797 -85.4278 317° Northwest 435 501 26,000  Level Minneapolis Center
Sun 09:10:32 PM 44.6681 -85.5444 317° Northwest 437 503 26,000  Level Minneapolis Center
Sun 09:11:34 PM 44.7747 -85.6600 322° Northwest 440 506 26,000  Level Minneapolis Center
Sun 09:12:36 PM 44.8697 -85.7606 323° Northwest 444 511 26,000  Level Minneapolis Center
Sun 09:13:38 PM 44.9675 -85.8639 323° Northwest 444 511 26,000  Level Minneapolis Center
Sun 09:14:40 PM 45.0669 -85.9694 323° Northwest 446 513 26,000  Level Minneapolis Center
Sun 09:15:42 PM 45.1728 -86.0831 323° Northwest 444 511 26,000  Level Minneapolis Center
Sun 09:16:44 PM 45.2708 -86.1883 323° Northwest 444 511 26,000 -238 Level Minneapolis Center
Sun 09:17:48 PM 45.3883 -86.3158 323° Northwest 446 513 25,500 -714 Descending Minneapolis Center
Sun 09:18:50 PM 45.4825 -86.4172 323° Northwest 431 496 24,500 -968 Descending Minneapolis Center
Sun 09:19:52 PM 45.5731 -86.5200 322° Northwest 421 484 23,500 -1,355 Descending Minneapolis Center
Sun 09:20:54 PM 45.6658 -86.6194 323° Northwest 418 481 21,700 -2,244 Descending Minneapolis Center
Sun 09:21:55 PM 45.7572 -86.7203 322° Northwest 417 480 18,900 -3,317 Descending Minneapolis Center
Sun 09:22:57 PM 45.8578 -86.8311 323° Northwest 382 440 14,900 -3,629 Descending Minneapolis Center
Sun 09:23:59 PM 45.9394 -86.9189 323° Northwest 362 417 11,400 -2,419 Descending Minneapolis Center
Sun 09:25:01 PM 46.0067 -86.9967 321° Northwest 298 343 9,900 -1,561 Descending Minneapolis Center
Sun 09:26:02 PM 46.0653 -87.0631 322° Northwest 265 305 8,200 -1,707 Descending Minneapolis Center
Sun 09:27:04 PM 46.1228 -87.1286 322° Northwest 260 299 6,400 -1,694 Descending Minneapolis Center
Sun 09:28:06 PM 46.1811 -87.1950 322° Northwest 262 302 4,700 -1,317 Descending Minneapolis Center
Sun 09:29:07 PM 46.2350 -87.2558 322° Northwest 248 285 3,700 -488 Descending Minneapolis Center
Sun 09:30:09 PM 46.2303 -87.3169 264° West 208 239 3,700  Level Minneapolis Center
Sun 09:31:11 PM 46.1717 -87.3553 204° Southwest 209 241 3,700  Level Minneapolis Center
Sun 09:32:12 PM 46.1586 -87.4281 256° West 196 226 3,700  Level Minneapolis Center
Sun 09:33:14 PM 46.2083 -87.4286 360° North 193 222 3,700 -390 Level Minneapolis Center
Sun 09:34:15 PM 46.2619 -87.4161 North 192 221 2,900 -878 Descending Minneapolis Center
Sun 09:35:17 PM 46.3064 -87.4061 North 164 189 1,900 -829 Descending Minneapolis Center
Sun 09:36:18 PM 46.3431 -87.3981 North 144 166 1,200 -689 Descending Minneapolis Center

Login

Don't have an account? Register now (free) for customized features, flight alerts, and more!